1983 NAOMI (1983110S12080)


On this page: IBTrACS data - Map and Plots - Positions - Intensities - Original source data

Summary

Start Apr 19
End May 2
Basin SI
LMI 86 kt
Sources jtwc_sh
bom
td9636
neumann
In WMO? Yes
Previous storm 1983 WILLIAM (SP)
Previous in basin 1983 LENA (SI)
Concurrent storms 1983 WILLIAM (SP)
1983 NAOMI (SI)
1983 MONTY (SI)
Next in basin 1983 MONTY (SI)
Next storm 1983 MONTY (SI)

top of page IBTrACS Data: File Access

top of page HURSAT Data: File Access

Image of storm

top of page Plots:

Map of storm track will not appear if FTP is down
Time series of cyclone Maximum Sustained Wind will not appear if FTP is down
Time series of cyclone Minimum Central Pressure will not appear if FTP is down

top of page Track Data:Position

jtwc_sh bom td9636 neumann
Date Lat Lon Lat Lon Lat Lon Lat Lon
1983-04-19 12:00:00 -11.8 80.4 -11.8 80.4
1983-04-19 18:00:00 -12.1 80.7 -12.1 80.7
1983-04-20 00:00:00 -12.3 81.1 -12.3 81.1
1983-04-20 06:00:00 -12.5 81.5 -12.5 81.5
1983-04-20 12:00:00 -12.7 81.9 -12.7 81.9
1983-04-20 18:00:00 -12.8 82.8 -12.8 82.8
1983-04-21 00:00:00 -12.8 83.5 -13.7 81.5 -13.7 81.5 -12.8 83.5
1983-04-21 06:00:00 -13.3 83.3 -13.3 81.4 -13.3 81.5 -13.3 83.3
1983-04-21 12:00:00 -13.6 83.0 -12.8 81.4 -12.8 81.4 -13.6 83.0
1983-04-21 18:00:00 -13.1 82.7 -12.3 81.3 -12.2 81.3 -13.1 82.7
1983-04-22 00:00:00 -12.5 82.4 -11.6 81.2 -11.6 81.2 -12.5 82.4
1983-04-22 06:00:00 -11.8 82.0 -11.0 81.1 -11.0 81.1 -11.8 82.0
1983-04-22 12:00:00 -11.2 81.6 -10.5 81.1 -10.5 81.1 -11.2 81.6
1983-04-22 18:00:00 -10.6 81.5 -10.1 81.2 -10.1 81.1 -10.6 81.5
1983-04-23 00:00:00 -10.0 81.5 -9.8 81.3 -9.8 81.3 -10.0 81.5
1983-04-23 06:00:00 -9.4 81.4 -9.4 81.6 -9.5 81.7 -9.4 81.4
1983-04-23 12:00:00 -8.8 81.3 -9.4 82.1 -9.4 82.1 -8.8 81.3
1983-04-23 18:00:00 -8.7 81.6 -9.4 82.2 -9.4 82.3 -8.7 81.6
1983-04-24 00:00:00 -9.0 82.0 -9.5 82.4 -9.5 82.4 -9.0 82.0
1983-04-24 06:00:00 -9.3 82.1 -9.6 82.6 -9.6 82.5 -9.3 82.1
1983-04-24 12:00:00 -9.6 82.2 -9.7 82.7 -9.7 82.7 -9.6 82.2
1983-04-24 18:00:00 -9.8 82.5 -9.8 82.9 -9.8 82.9 -9.8 82.5
1983-04-25 00:00:00 -10.0 83.0 -10.0 83.3 -10.0 83.3 -10.0 83.0
1983-04-25 06:00:00 -10.3 83.6 -10.3 84.0 -10.4 83.9 -10.3 83.6
1983-04-25 12:00:00 -10.7 84.4 -10.8 84.7 -10.8 84.7 -10.7 84.4
jtwc_sh bom td9636 neumann
1983-04-25 18:00:00 -11.1 85.5 -11.2 85.5 -11.2 85.4 -11.1 85.5
1983-04-26 00:00:00 -11.5 86.6 -11.6 86.2 -11.6 86.2 -11.5 86.6
1983-04-26 06:00:00 -12.0 87.8 -12.0 87.4 -12.2 87.3 -12.0 87.8
1983-04-26 12:00:00 -12.5 89.0 -12.7 88.6 -12.7 88.6 -12.5 89.0
1983-04-26 18:00:00 -13.0 90.0 -13.1 89.9 -13.0 89.7 -13.0 90.0
1983-04-27 00:00:00 -13.5 91.0 -13.3 90.8 -13.3 90.8 -13.5 91.0
1983-04-27 06:00:00 -14.1 91.9 -13.7 91.7 -13.9 91.8 -14.1 91.9
1983-04-27 12:00:00 -14.8 92.7 -14.3 92.7 -14.5 92.7 -14.8 92.7
1983-04-27 18:00:00 -15.4 93.5 -15.0 93.7 -14.9 93.4 -15.4 93.5
1983-04-28 00:00:00 -16.0 94.0 -15.2 94.0 -15.2 94.0 -16.0 94.0
1983-04-28 06:00:00 -16.4 94.3 -15.5 94.5 -15.5 94.4 -16.4 94.3
1983-04-28 12:00:00 -16.6 94.5 -15.7 94.7 -15.7 94.7 -16.6 94.5
1983-04-28 18:00:00 -16.7 94.8 -16.0 95.0 -16.0 95.0 -16.7 94.8
1983-04-29 00:00:00 -16.8 95.1 -16.3 95.3 -16.3 95.3 -16.8 95.1
1983-04-29 06:00:00 -16.7 95.4 -16.7 95.4 -16.6 95.7 -16.7 95.4
1983-04-29 12:00:00 -16.7 95.7 -16.8 96.0 -16.8 96.0 -16.7 95.7
1983-04-29 18:00:00 -16.8 95.8 -16.5 95.9 -16.6 95.8 -16.8 95.8
1983-04-30 00:00:00 -17.1 95.5 -16.2 95.3 -16.2 95.3 -17.1 95.5
1983-04-30 06:00:00 -16.0 94.8 -16.0 94.8
1983-04-30 12:00:00 -15.8 94.3 -15.8 94.3
1983-04-30 18:00:00 -15.7 93.8 -15.6 93.7
1983-05-01 00:00:00 -15.3 93.0 -15.3 93.0
1983-05-01 06:00:00 -14.8 92.3 -14.9 92.3
1983-05-01 12:00:00 -14.4 91.7 -14.4 91.7
jtwc_sh bom td9636 neumann
1983-05-01 18:00:00 -14.0 91.3 -13.9 91.4
1983-05-02 00:00:00 -13.2 90.5 -13.2 90.5
1983-05-02 06:00:00 -12.0 88.5 -12.0 88.5

top of pageTrack Data:Intensity

jtwc_sh bom td9636 neumann
Date Wind Pres Wind Pres Wind Pres Wind Pres
1983-04-19 12:00:00 20. 20.
1983-04-19 18:00:00 20. 20.
1983-04-20 00:00:00 20. 20.
1983-04-20 06:00:00 20. 20.
1983-04-20 12:00:00 25. 25.
1983-04-20 18:00:00 25. 25.
1983-04-21 00:00:00 25. 1005. 22. 25.
1983-04-21 06:00:00 25. 1003. 22. 25.
1983-04-21 12:00:00 30. 1001. 27. 30.
1983-04-21 18:00:00 30. 998. 27. 30.
1983-04-22 00:00:00 30. 996. 38. 30.
1983-04-22 06:00:00 30. 994. 38. 30.
1983-04-22 12:00:00 35. 992. 43. 35.
1983-04-22 18:00:00 35. 991. 43. 35.
1983-04-23 00:00:00 35. 985. 54. 35.
1983-04-23 06:00:00 35. 980. 54. 35.
1983-04-23 12:00:00 40. 977. 65. 40.
1983-04-23 18:00:00 45. 974. 65. 45.
1983-04-24 00:00:00 50. 970. 76. 50.
1983-04-24 06:00:00 50. 968. 76. 50.
1983-04-24 12:00:00 50. 965. 81. 50.
1983-04-24 18:00:00 50. 963. 81. 50.
1983-04-25 00:00:00 50. 960. 86. 50.
1983-04-25 06:00:00 50. 960. 86. 50.
1983-04-25 12:00:00 55. 960. 86. 55.
jtwc_sh bom td9636 neumann
1983-04-25 18:00:00 60. 960. 86. 60.
1983-04-26 00:00:00 60. 960. 86. 75.
1983-04-26 06:00:00 60. 960. 86. 85. 960.
1983-04-26 12:00:00 60. 960. 86. 85. 960.
1983-04-26 18:00:00 60. 960. 86. 85. 960.
1983-04-27 00:00:00 60. 960. 86. 80.
1983-04-27 06:00:00 60. 960. 86. 70.
1983-04-27 12:00:00 55. 960. 86. 60.
1983-04-27 18:00:00 55. 960. 86. 55.
1983-04-28 00:00:00 50. 960. 86. 50.
1983-04-28 06:00:00 50. 964. 86. 50.
1983-04-28 12:00:00 45. 968. 76. 45.
1983-04-28 18:00:00 45. 972. 76. 45.
1983-04-29 00:00:00 40. 976. 65. 40.
1983-04-29 06:00:00 40. 980. 65. 40.
1983-04-29 12:00:00 35. 986. 54. 35.
1983-04-29 18:00:00 35. 989. 54. 35.
1983-04-30 00:00:00 30. 994. 43. 30.
1983-04-30 06:00:00 996. 43.
1983-04-30 12:00:00 998. 32.
1983-04-30 18:00:00 1000. 32.
1983-05-01 00:00:00 1003. 27.
1983-05-01 06:00:00 1005. 27.
1983-05-01 12:00:00 1005. 22.
jtwc_sh bom td9636 neumann
1983-05-01 18:00:00 1005. 22.
1983-05-02 00:00:00 1006. 22.
1983-05-02 06:00:00 1008. 16.

top of page Links to source data

Source Source file Format
jtwc_sh bsh231983.txt ATCF
bom Newcyclonedatabase-08repair.csv:Line=12947:NAOMI CSV file (from Excel file)
td9636 cons_worldwide_trop_cyclone_18710101-19891231-006:Line=11787 TD 9636
neumann tracks.sh:Storm=679:NAOMI:BSH2383:JTWC&BM536 HURDAT